Latest Weather Observations for Carnarvon

IDW60801

Issued at 5:35 pm WST Friday 25 April 2014 (issued every 30 minutes, with the page automatically refreshed every 10 minutes)

About weather observations | Map of weather stations | Latest weather observations for WA | Other Formats
Station Details ID: 006011 Name: CARNARVON AIRPORT Lat: -24.89 Lon: 113.67 Height: 4.0 m
Data from the previous 72 hours. | See also: Recent months at Carnarvon
Date/Time
WST
Temp
°C
App
Temp
°C
Dew
Point
Rel
Hum
%
Delta-T
°C
Wind Press
QNH
hPa
Press
MSL
hPa
Rain
since 9 am
mm
Dir
 
Spd
km/h
Gust
km/h
Spd
kts
Gust
kts
25/05:30pm 24.2 22.6 16.5 62 4.7 NE 20 26 11 14 1008.5 - 0.8
25/05:00pm 24.2 21.9 16.7 63 4.6 NE 24 32 13 17 1008.3 - 0.8
25/04:30pm 25.2 23.9 17.3 61 4.9 NE 20 28 11 15 1008.5 - 0.8
25/04:00pm 25.2 24.6 17.5 62 4.8 ENE 17 24 9 13 1008.4 - 0.8
25/03:30pm 25.3 23.5 16.9 59 5.2 ENE 22 28 12 15 1008.5 - 0.8
25/03:00pm 25.2 22.7 17.0 60 5.1 ENE 26 35 14 19 1008.3 1008.3 0.8
25/02:30pm 24.6 21.9 17.6 65 4.4 ENE 28 39 15 21 1008.5 - 0.8
25/02:00pm 25.6 22.2 16.7 58 5.5 NE 30 41 16 22 1009.0 - 0.8
25/01:30pm 25.5 21.4 15.0 52 6.3 NE 30 44 16 24 1008.8 - 0.6
25/01:00pm 25.7 22.6 14.5 50 6.7 NE 24 35 13 19 1009.3 - 0.6
25/12:30pm 24.8 23.6 17.4 63 4.6 E 20 28 11 15 1009.6 - 0.6
25/12:00pm 23.1 23.1 18.2 74 3.1 SSE 15 17 8 9 1010.3 1010.3 0.6
25/11:30am 23.3 24.0 19.7 80 2.3 SSE 15 19 8 10 1010.8 - 0.6
25/11:00am 22.4 23.1 18.8 80 2.3 SSE 13 17 7 9 1011.5 - 0.6
25/10:30am 22.8 24.0 18.3 76 2.8 ENE 9 17 5 9 1011.3 - 0.2
25/10:00am 23.5 24.0 18.4 73 3.2 E 13 20 7 11 1010.2 - 0.0
25/09:30am 22.5 22.8 18.7 79 2.4 ESE 15 20 8 11 1010.5 - 0.0
25/09:00am 23.0 23.9 19.2 79 2.4 SE 13 17 7 9 1010.8 1010.8 0.8
25/08:30am 21.8 22.5 18.8 83 1.9 S 13 17 7 9 1011.1 - 0.8
25/08:00am 21.3 21.8 18.4 83 1.8 N 13 22 7 12 1011.3 - 0.8
25/07:30am 21.3 24.4 19.4 89 1.2 E 2 11 1 6 1010.4 - 0.6
25/07:00am 21.6 22.8 19.1 86 1.6 E 11 13 6 7 1009.5 - 0.0
25/06:30am 22.3 23.4 18.0 76 2.7 SSE 9 11 5 6 1009.6 - 0.0
25/06:00am 22.1 23.2 17.9 77 2.6 SE 9 9 5 5 1008.9 1008.9 0.0
25/05:30am 22.1 23.6 18.1 78 2.5 SE 7 11 4 6 1008.7 - 0.0
25/05:00am 21.8 22.9 18.1 79 2.3 ESE 9 11 5 6 1008.5 - 0.0
25/04:30am 21.8 23.4 18.3 80 2.2 E 7 9 4 5 1008.6 - 0.0
25/04:00am 21.9 23.2 18.4 80 2.2 E 9 11 5 6 1008.5 - 0.0
25/03:30am 22.0 23.2 18.3 79 2.3 ESE 9 11 5 6 1008.9 - 0.0
25/03:00am 22.2 23.8 18.2 78 2.5 SSE 7 9 4 5 1009.2 1009.2 0.0
25/02:30am 22.5 23.0 18.4 77 2.6 SSE 13 17 7 9 1008.9 - 0.0
25/02:00am 22.1 23.2 18.1 78 2.5 S 9 11 5 6 1009.0 - 0.0
25/01:30am 22.0 23.6 18.3 79 2.3 ESE 7 11 4 6 1008.9 - 0.0
25/01:00am 22.1 23.4 18.4 79 2.3 SE 9 11 5 6 1008.8 - 0.0
25/12:30am 22.2 21.9 18.2 78 2.5 SSE 17 19 9 10 1009.0 - 0.0
25/12:00am 22.5 25.2 17.8 75 2.9 CALM 0 0 0 0 1010.0 1010.0 0.0
 
Date/Time
WST
Temp
°C
App
Temp
°C
Dew
Point
Rel
Hum
%
Delta-T
°C
Wind Press
QNH
hPa
Press
MSL
hPa
Rain
since 9 am
mm
Dir
 
Spd
km/h
Gust
km/h
Spd
kts
Gust
kts
24/11:30pm 22.5 23.9 17.7 74 3.0 SSE 7 9 4 5 1010.0 - 0.0
24/11:00pm 22.8 23.9 18.0 74 3.0 SSE 9 15 5 8 1010.5 - 0.0
24/10:30pm 23.2 23.7 18.3 74 3.1 S 13 15 7 8 1010.9 - 0.0
24/10:00pm 23.5 23.6 17.5 69 3.7 SE 13 17 7 9 1010.4 - 0.0
24/09:30pm 23.4 22.8 17.6 70 3.6 ESE 17 22 9 12 1010.2 - 0.0
24/09:00pm 23.4 22.8 17.6 70 3.6 SE 17 24 9 13 1010.4 1010.4 0.0
24/08:30pm 23.5 23.3 17.5 69 3.7 SE 15 19 8 10 1010.9 - 0.0
24/08:00pm 23.5 23.0 17.7 70 3.6 SE 17 22 9 12 1011.3 - 0.0
24/07:30pm 23.5 22.6 18.2 72 3.3 SSE 20 28 11 15 1011.4 - 0.0
24/07:00pm 23.8 21.0 17.4 67 4.0 SSE 28 37 15 20 1010.9 - 0.0
24/06:30pm 23.7 22.4 19.0 75 3.0 SSE 24 32 13 17 1010.8 - 0.0
24/06:00pm 23.8 22.9 18.2 71 3.5 S 20 26 11 14 1011.0 1011.0 0.0
24/05:30pm 24.0 23.8 19.3 75 3.0 S 19 22 10 12 1010.7 - 0.0
24/05:00pm 24.8 23.9 19.0 70 3.7 SSW 22 28 12 15 1010.5 - 0.0
24/04:30pm 24.5 24.1 19.4 73 3.3 SSW 20 24 11 13 1010.1 - 0.0
24/04:00pm 25.1 24.6 19.0 69 3.9 SSW 20 22 11 12 1009.9 - 0.0
24/03:30pm 25.1 24.6 19.2 70 3.8 SSW 20 24 11 13 1009.6 - 0.0
24/03:00pm 25.9 25.4 19.2 66 4.3 SSW 20 24 11 13 1009.4 1009.4 0.0
24/02:30pm 24.9 24.5 18.9 69 3.8 SSW 19 26 10 14 1009.3 - 0.0
24/02:00pm 25.2 24.6 18.9 68 4.0 S 20 26 11 14 1009.5 - 0.0
24/01:30pm 25.0 24.4 18.9 69 3.9 S 20 28 11 15 1009.5 - 0.0
24/01:00pm 26.0 24.5 18.5 63 4.8 SSW 24 30 13 16 1009.6 - 0.0
24/12:30pm 25.1 23.9 19.2 70 3.8 SSW 24 30 13 16 1010.0 - 0.0
24/12:00pm 24.7 24.2 19.1 71 3.6 SSW 20 26 11 14 1010.5 1010.5 0.0
24/11:30am 24.6 24.2 19.0 71 3.6 S 19 22 10 12 1011.1 - 0.0
24/11:00am 24.2 24.6 19.0 72 3.3 SSW 15 19 8 10 1011.6 - 0.0
24/10:30am 24.4 25.1 18.9 71 3.5 S 13 17 7 9 1012.0 - 0.0
24/10:00am 24.3 25.0 18.8 71 3.5 S 13 17 7 9 1012.4 - 0.0
24/09:30am 23.8 23.8 18.9 74 3.1 S 17 20 9 11 1012.3 - 0.0
24/09:00am 23.5 24.0 19.3 77 2.7 SSE 15 17 8 9 1012.4 1012.4 0.0
24/08:30am 22.9 23.6 19.6 81 2.1 S 15 19 8 10 1011.8 - 0.0
24/08:00am 22.5 23.6 19.7 84 1.8 S 13 17 7 9 1011.7 - 0.0
24/07:30am 22.2 22.8 19.5 85 1.7 S 15 17 8 9 1011.4 - 0.0
24/07:00am 22.0 23.4 19.5 86 1.6 S 11 15 6 8 1011.2 - 0.0
24/06:30am 21.9 22.9 19.4 86 1.6 S 13 17 7 9 1010.7 - 0.0
24/06:00am 22.0 22.5 19.3 85 1.7 S 15 19 8 10 1010.6 1010.6 0.0
24/05:30am 21.8 22.7 19.3 86 1.6 S 13 17 7 9 1010.3 - 0.0
24/05:00am 21.5 23.1 19.1 86 1.5 S 9 13 5 7 1010.3 - 0.0
24/04:30am 21.5 22.7 19.0 86 1.6 S 11 15 6 8 1010.0 - 0.0
24/04:00am 21.5 23.1 19.1 86 1.5 S 9 13 5 7 1010.2 - 0.0
24/03:30am 21.6 22.4 19.1 86 1.6 S 13 17 7 9 1010.3 - 0.0
24/03:00am 21.5 22.2 18.8 84 1.7 S 13 17 7 9 1010.5 1010.5 0.0
24/02:30am 20.9 22.1 18.3 85 1.6 S 9 13 5 7 1010.6 - 0.0
24/02:00am 20.2 21.3 18.1 88 1.3 S 9 9 5 5 1011.0 - 0.0
24/01:30am 19.7 21.0 17.6 88 1.3 S 7 9 4 5 1011.2 - 0.0
24/01:00am 20.1 21.5 17.8 86 1.4 S 7 9 4 5 1011.4 - 0.0
24/12:30am 20.8 22.2 17.9 83 1.8 S 7 7 4 4 1011.6 - 0.0
24/12:00am 21.3 22.0 17.9 81 2.1 S 11 13 6 7 1011.5 1011.5 0.0
 
Date/Time
WST
Temp
°C
App
Temp
°C
Dew
Point
Rel
Hum
%
Delta-T
°C
Wind Press
QNH
hPa
Press
MSL
hPa
Rain
since 9 am
mm
Dir
 
Spd
km/h
Gust
km/h
Spd
kts
Gust
kts
23/11:30pm 22.2 23.2 19.5 85 1.7 S 13 19 7 10 1011.9 - 0.0
23/11:00pm 22.3 22.9 19.5 84 1.8 S 15 19 8 10 1011.8 - 0.0
23/10:30pm 22.3 22.5 19.3 83 1.9 S 17 20 9 11 1012.0 - 0.0
23/10:00pm 22.4 23.0 19.4 83 1.9 S 15 20 8 11 1012.3 - 0.0
23/09:30pm 22.4 23.4 19.4 83 1.9 S 13 17 7 9 1012.5 - 0.0
23/09:00pm 21.5 24.7 18.8 84 1.7 CALM 0 0 0 0 1012.5 1012.5 0.0
23/08:30pm 21.6 23.6 18.7 83 1.8 SSE 6 7 3 4 1012.6 - 0.0
23/08:00pm 22.0 23.5 18.8 82 2.0 SSE 9 11 5 6 1012.2 - 0.0
23/07:30pm 22.7 23.9 19.1 80 2.3 S 11 13 6 7 1012.5 - 0.0
23/07:00pm 23.2 23.2 18.9 77 2.7 SSW 17 20 9 11 1012.3 - 0.0
23/06:30pm 23.1 23.8 18.8 77 2.7 SSW 13 17 7 9 1012.2 - 0.0
23/06:00pm 23.4 23.7 18.7 75 3.0 S 15 19 8 10 1011.9 1011.9 0.0
23/05:30pm 23.7 23.4 18.3 71 3.4 S 17 20 9 11 1011.6 - 0.0
23/05:00pm 23.8 23.3 17.7 68 3.8 S 17 20 9 11 1011.7 - 0.0
23/04:30pm 24.2 23.4 17.1 64 4.4 SSW 17 22 9 12 1011.7 - 0.0
23/04:00pm 24.0 23.0 17.6 67 4.0 SSW 19 22 10 12 1011.4 - 0.0
23/03:30pm 24.0 22.9 17.8 68 3.9 S 20 26 11 14 1011.3 - 0.0
23/03:00pm 24.0 21.9 17.2 65 4.2 SSW 24 30 13 16 1011.1 1011.1 0.0
23/02:30pm 24.3 23.4 17.7 66 4.1 SW 19 22 10 12 1011.4 - 0.0
23/02:00pm 23.9 22.7 16.0 61 4.8 WSW 17 20 9 11 1011.6 - 0.0
23/01:30pm 23.4 23.1 16.5 65 4.2 SSW 13 17 7 9 1011.6 - 0.0
23/01:00pm 23.0 22.7 16.4 66 4.0 S 13 17 7 9 1011.7 - 0.0
23/12:30pm 23.0 21.5 16.2 65 4.1 S 19 22 10 12 1012.2 - 0.0
23/12:00pm 23.6 22.1 16.4 64 4.4 S 19 20 10 11 1012.7 1012.7 0.0
23/11:30am 23.1 21.9 16.2 65 4.2 S 17 20 9 11 1013.0 - 0.0
23/11:00am 23.5 21.9 16.1 63 4.5 S 19 22 10 12 1013.1 - 0.0
23/10:30am 23.5 22.5 16.6 65 4.2 S 17 20 9 11 1013.3 - 0.0
23/10:00am 23.3 22.0 16.8 67 4.0 S 19 22 10 12 1013.7 - 0.0
23/09:30am 23.2 21.7 16.8 67 3.9 S 20 24 11 13 1013.6 - 0.0
23/09:00am 23.2 21.5 17.2 69 3.7 S 22 24 12 13 1013.7 1013.7 0.0
23/08:30am 23.9 23.2 17.3 66 4.1 S 17 22 9 12 1013.4 - 0.0
23/08:00am 22.4 21.1 15.9 66 3.9 S 17 22 9 12 1013.1 - 0.0
23/07:30am 21.7 20.4 15.9 69 3.5 SSE 17 22 9 12 1012.5 - 0.0
23/07:00am 21.4 20.1 15.9 71 3.3 SSE 17 24 9 13 1012.2 - 0.0
23/06:30am 21.3 20.1 16.0 72 3.2 S 17 22 9 12 1012.3 - 0.0
23/06:00am 21.5 19.8 15.8 70 3.4 S 19 22 10 12 1012.3 1012.3 0.0
23/05:30am 21.3 20.0 15.8 71 3.3 S 17 22 9 12 1012.2 - 0.0
23/05:00am 21.5 19.7 15.6 69 3.5 SSE 19 24 10 13 1012.1 - 0.0
23/04:30am 21.6 20.3 15.8 69 3.5 S 17 22 9 12 1011.9 - 0.0
23/04:00am 21.7 20.0 15.7 68 3.6 SSE 19 26 10 14 1011.9 - 0.0
23/03:30am 21.9 20.4 16.3 70 3.4 SSE 19 24 10 13 1011.9 - 0.0
23/03:00am 22.0 20.7 16.9 73 3.1 S 19 24 10 13 1011.9 1011.9 0.0
23/02:30am 22.2 21.7 17.7 75 2.8 S 17 22 9 12 1012.2 - 0.0
23/02:00am 22.1 21.6 17.7 76 2.7 S 17 20 9 11 1012.7 - 0.0
23/01:30am 22.1 21.6 17.9 77 2.6 S 17 20 9 11 1012.8 - 0.0
23/01:00am 22.2 21.7 17.9 76 2.7 S 17 22 9 12 1013.0 - 0.0
23/12:30am 22.2 22.2 18.0 77 2.6 S 15 20 8 11 1013.4 - 0.0
23/12:00am 22.3 22.2 17.8 75 2.8 SSE 15 20 8 11 1013.5 1013.5 0.0
 
Date/Time
WST
Temp
°C
App
Temp
°C
Dew
Point
Rel
Hum
%
Delta-T
°C
Wind Press
QNH
hPa
Press
MSL
hPa
Rain
since 9 am
mm
Dir
 
Spd
km/h
Gust
km/h
Spd
kts
Gust
kts
22/11:30pm 22.5 22.0 17.7 74 3.0 S 17 22 9 12 1013.7 - 0.0
22/11:00pm 22.5 22.0 17.8 75 2.9 S 17 22 9 12 1013.9 - 0.0
22/10:30pm 22.8 22.2 17.5 72 3.3 S 17 20 9 11 1014.1 - 0.0
22/10:00pm 23.1 22.4 17.3 70 3.6 S 17 20 9 11 1014.1 - 0.0
22/09:30pm 23.5 23.0 17.9 71 3.5 S 17 22 9 12 1014.1 - 0.0
22/09:00pm 23.8 23.1 18.2 71 3.5 S 19 24 10 13 1014.1 1014.1 0.0
22/08:30pm 23.9 23.0 18.2 70 3.6 S 20 28 11 15 1013.8 - 0.0
22/08:00pm 24.1 23.4 18.6 71 3.5 S 20 28 11 15 1013.6 - 0.0
22/07:30pm 24.2 23.4 18.5 70 3.6 S 20 26 11 14 1013.3 - 0.0
22/07:00pm 24.3 23.1 18.4 69 3.7 S 22 28 12 15 1013.0 - 0.0
22/06:30pm 24.6 23.0 18.4 68 3.9 SSW 24 32 13 17 1012.6 - 0.0
22/06:00pm 24.9 24.5 18.8 69 3.9 SSW 19 24 10 13 1012.3 1012.3 0.0

Other Formats:

Comma delimited format used in spreadsheet applications
http://www.bom.gov.au/fwo/IDW60801/IDW60801.94300.axf

JavaScript Object Notation format (JSON) in row-major order
http://www.bom.gov.au/fwo/IDW60801/IDW60801.94300.json